Time;durP1;ratioP1;P1;durP2;ratioP2;P2;SDS_P1;SDS_P2;PMS_P1;PMS_P2;Temp;Humidity;BMP_temperature;BMP_pressure;BME280_temperature;BME280_humidity;BME280_pressure;Samples;Min_cycle;Max_cycle;Signal;HPM_P1;HPM_P2
2023/10/07 00:02:16;;;;;;;16.05;5.28;;;16.10;99.90;;;;;;5091292;28;20130;-83
2023/10/07 00:04:44;;;;;;;13.52;4.70;;;16.10;99.90;;;;;;5112783;27;20031;-84
2023/10/07 00:07:13;;;;;;;14.73;4.65;;;16.20;99.90;;;;;;5086993;28;20067;-84
2023/10/07 00:09:46;;;;;;;13.25;4.55;;;16.10;99.90;;;;;;5084313;27;20043;-83
2023/10/07 00:12:14;;;;;;;10.25;4.05;;;16.10;99.90;;;;;;5089126;27;20062;-85
2023/10/07 00:14:46;;;;;;;13.70;4.32;;;16.10;99.90;;;;;;5108144;28;20042;-83
2023/10/07 00:17:18;;;;;;;16.58;4.55;;;16.10;99.90;;;;;;5074991;27;20040;-84
2023/10/07 00:19:47;;;;;;;17.48;4.65;;;16.10;99.90;;;;;;5111428;27;20067;-83
2023/10/07 00:22:14;;;;;;;10.18;4.10;;;16.10;99.90;;;;;;5112285;27;20070;-83
2023/10/07 00:24:45;;;;;;;13.82;4.35;;;16.70;99.90;;;;;;5089655;28;20478;-83
2023/10/07 00:27:27;;;;;;;11.32;3.85;;;16.20;99.90;;;;;;5072401;28;20043;-83
2023/10/07 00:29:59;;;;;;;14.10;4.43;;;16.70;99.90;;;;;;5094703;27;20398;-83
2023/10/07 00:32:30;;;;;;;13.45;4.97;;;16.70;99.90;;;;;;5071923;28;20043;-84
2023/10/07 00:34:59;;;;;;;12.55;4.32;;;16.20;99.90;;;;;;5096004;27;20046;-84
2023/10/07 00:37:25;;;;;;;14.00;4.32;;;16.20;99.90;;;;;;5096374;28;20093;-84
2023/10/07 00:39:53;;;;;;;11.70;3.97;;;16.20;99.90;;;;;;5071511;27;20059;-83
2023/10/07 00:42:19;;;;;;;15.77;4.38;;;16.20;99.90;;;;;;5089793;28;20177;-84
2023/10/07 00:44:47;;;;;;;18.23;5.00;;;16.60;99.90;;;;;;5091071;28;20118;-84
2023/10/07 00:47:13;;;;;;;13.23;4.40;;;16.30;99.90;;;;;;5111379;27;20085;-83
2023/10/07 00:49:41;;;;;;;15.70;4.75;;;16.20;99.90;;;;;;5119412;27;20047;-83
2023/10/07 00:52:14;;;;;;;16.95;4.90;;;16.20;99.90;;;;;;5107472;27;20152;-83
2023/10/07 00:57:34;;;;;;;12.05;4.18;;;16.40;99.90;;;;;;5088974;28;20467;-84
2023/10/07 01:00:18;;;;;;;14.38;5.53;;;16.30;99.90;;;;;;5089112;28;20502;-84
2023/10/07 01:02:51;;;;;;;16.05;4.55;;;16.30;99.90;;;;;;5106711;27;20656;-84
2023/10/07 01:05:25;;;;;;;11.63;4.05;;;16.30;99.90;;;;;;5081009;28;20081;-83
2023/10/07 01:07:54;;;;;;;14.77;4.50;;;16.30;99.90;;;;;;5073750;28;20043;-84
2023/10/07 01:10:26;;;;;;;12.20;4.72;;;16.40;99.90;;;;;;5089022;28;20470;-83
2023/10/07 01:12:55;;;;;;;12.48;4.15;;;16.40;99.90;;;;;;5071358;28;20071;-83
2023/10/07 01:15:23;;;;;;;13.00;4.32;;;16.40;99.90;;;;;;5087513;28;20047;-83
2023/10/07 01:17:57;;;;;;;13.20;4.93;;;16.40;99.90;;;;;;5108096;28;20083;-84
2023/10/07 01:20:34;;;;;;;15.43;4.50;;;17.00;99.90;;;;;;5102520;27;20035;-85
2023/10/07 01:23:03;;;;;;;10.50;4.05;;;16.80;99.90;;;;;;5109353;27;20035;-84
2023/10/07 01:25:37;;;;;;;9.35;4.25;;;16.40;99.90;;;;;;5110523;27;20114;-84
2023/10/07 01:28:04;;;;;;;14.15;4.82;;;16.40;99.90;;;;;;5127080;27;20055;-83
2023/10/07 01:30:34;;;;;;;12.85;4.75;;;16.40;99.90;;;;;;5076351;28;20046;-83
2023/10/07 01:33:09;;;;;;;13.38;4.90;;;16.40;99.90;;;;;;5076417;28;20762;-83
2023/10/07 01:35:39;;;;;;;12.80;4.32;;;16.30;99.90;;;;;;5101809;27;20050;-83
2023/10/07 01:38:08;;;;;;;11.65;4.72;;;16.40;99.90;;;;;;5097499;28;20070;-84
2023/10/07 01:43:19;;;;;;;16.10;4.70;;;16.60;99.90;;;;;;5103951;27;20055;-84
2023/10/07 01:45:47;;;;;;;8.48;4.70;;;16.40;99.90;;;;;;5103151;27;20043;-83
2023/10/07 01:48:13;;;;;;;13.05;4.70;;;16.40;99.90;;;;;;5091723;27;20126;-83
2023/10/07 01:50:40;;;;;;;18.63;5.05;;;17.00;99.90;;;;;;5101560;28;20114;-82
2023/10/07 01:53:06;;;;;;;10.60;4.55;;;16.50;99.90;;;;;;5092916;28;20126;-83
2023/10/07 01:55:48;;;;;;;15.75;5.18;;;16.50;99.90;;;;;;5092859;28;20084;-85
2023/10/07 01:58:15;;;;;;;13.88;5.05;;;16.50;99.90;;;;;;5085585;27;20047;-84
2023/10/07 02:00:46;;;;;;;14.68;4.75;;;16.50;99.90;;;;;;5114946;27;20040;-82
2023/10/07 02:03:13;;;;;;;11.80;4.35;;;16.50;99.90;;;;;;5092544;28;20126;-83
2023/10/07 02:05:47;;;;;;;19.73;4.50;;;16.60;99.90;;;;;;5092268;28;20521;-84
2023/10/07 02:08:22;;;;;;;12.63;4.63;;;16.50;99.90;;;;;;5092710;28;20271;-83
2023/10/07 02:10:49;;;;;;;11.05;5.00;;;16.50;99.90;;;;;;5091527;28;20035;-84
2023/10/07 02:13:19;;;;;;;15.60;4.80;;;16.90;99.90;;;;;;5110510;27;20120;-83
2023/10/07 02:15:46;;;;;;;14.25;4.40;;;16.50;99.90;;;;;;5098860;28;20071;-84
2023/10/07 02:18:15;;;;;;;12.88;4.50;;;16.80;99.90;;;;;;5104458;27;20062;-83
2023/10/07 02:20:49;;;;;;;12.25;4.55;;;16.50;99.90;;;;;;5075770;27;20043;-83
2023/10/07 02:23:21;;;;;;;9.60;4.07;;;16.60;99.90;;;;;;5101844;27;20051;-82
2023/10/07 02:25:49;;;;;;;11.48;4.43;;;16.60;99.90;;;;;;5095018;27;20096;-84
2023/10/07 02:28:15;;;;;;;15.20;5.10;;;16.60;99.90;;;;;;5092630;28;20107;-83
2023/10/07 02:30:51;;;;;;;11.65;4.35;;;16.70;99.90;;;;;;5074414;28;20050;-84
2023/10/07 02:33:21;;;;;;;16.15;5.38;;;16.60;99.90;;;;;;5109549;27;20039;-83
2023/10/07 02:35:54;;;;;;;12.52;4.38;;;16.70;99.90;;;;;;5108061;27;20047;-83
2023/10/07 02:38:24;;;;;;;15.07;4.18;;;16.70;99.90;;;;;;5112862;27;20047;-84
2023/10/07 02:40:51;;;;;;;12.25;4.63;;;16.70;99.90;;;;;;5078243;27;20517;-83
2023/10/07 02:43:16;;;;;;;13.65;4.88;;;16.80;99.90;;;;;;5097280;27;20039;-83
2023/10/07 02:45:42;;;;;;;13.60;5.22;;;16.80;99.90;;;;;;5095489;28;20044;-83
2023/10/07 02:48:10;;;;;;;14.98;5.10;;;16.80;99.90;;;;;;5099680;27;20043;-84
2023/10/07 02:50:40;;;;;;;13.40;4.63;;;17.50;99.90;;;;;;5092429;28;20530;-83
2023/10/07 02:53:11;;;;;;;15.68;5.07;;;16.90;99.90;;;;;;5098160;28;20051;-83
2023/10/07 02:55:47;;;;;;;11.38;4.82;;;16.80;99.90;;;;;;5091541;28;20055;-83
2023/10/07 02:58:25;;;;;;;13.75;4.78;;;16.80;99.90;;;;;;5109589;27;20047;-83
2023/10/07 03:00:51;;;;;;;12.90;4.82;;;16.80;99.90;;;;;;5074087;28;20168;-83
2023/10/07 03:06:00;;;;;;;10.13;4.43;;;17.60;99.90;;;;;;5107830;27;20048;-83
2023/10/07 03:08:40;;;;;;;11.23;4.80;;;16.90;99.90;;;;;;5112095;27;20045;-83
2023/10/07 03:11:20;;;;;;;8.80;4.78;;;17.10;99.90;;;;;;5101383;27;20479;-84
2023/10/07 03:13:46;;;;;;;11.77;4.38;;;16.90;99.90;;;;;;5130484;27;20046;-83
2023/10/07 03:18:55;;;;;;;13.27;4.97;;;17.50;99.90;;;;;;5094615;28;20538;-83
2023/10/07 03:21:21;;;;;;;9.55;4.60;;;17.00;99.90;;;;;;5101796;28;20040;-83
2023/10/07 03:23:48;;;;;;;13.75;5.00;;;16.90;99.90;;;;;;5083416;28;20117;-84
2023/10/07 03:26:18;;;;;;;15.68;4.55;;;16.90;99.90;;;;;;5090524;28;20051;-83
2023/10/07 03:29:04;;;;;;;13.90;4.88;;;16.90;99.90;;;;;;5102793;27;20047;-84
2023/10/07 03:31:35;;;;;;;8.65;4.18;;;16.90;99.90;;;;;;5090970;28;20047;-84
2023/10/07 03:34:03;;;;;;;13.85;5.60;;;17.10;99.90;;;;;;5092645;27;20062;-83
2023/10/07 03:36:41;;;;;;;11.27;4.55;;;16.90;99.90;;;;;;5095272;28;20040;-84
2023/10/07 03:41:47;;;;;;;15.75;4.90;;;16.90;99.90;;;;;;5100399;27;20114;-83
2023/10/07 03:44:14;;;;;;;13.45;4.25;;;16.90;99.90;;;;;;5117689;27;20284;-83
2023/10/07 03:46:40;;;;;;;11.73;4.57;;;16.90;99.90;;;;;;5125338;27;20476;-83
2023/10/07 03:49:07;;;;;;;15.13;5.47;;;16.90;99.90;;;;;;5097023;28;20097;-83
2023/10/07 03:51:32;;;;;;;12.65;4.43;;;17.00;99.90;;;;;;5111800;27;20043;-83
2023/10/07 03:54:01;;;;;;;12.30;4.40;;;17.00;99.90;;;;;;5089617;28;20042;-83
2023/10/07 03:56:27;;;;;;;10.32;4.50;;;17.10;99.90;;;;;;5063233;27;20047;-83
2023/10/07 03:58:55;;;;;;;14.38;5.00;;;17.00;99.90;;;;;;5098058;27;20533;-84
2023/10/07 04:01:22;;;;;;;15.18;5.03;;;17.00;99.90;;;;;;5085711;28;20043;-82
2023/10/07 04:03:50;;;;;;;11.15;4.30;;;17.00;99.90;;;;;;5109321;28;20053;-83
2023/10/07 04:06:20;;;;;;;12.27;4.50;;;17.00;99.90;;;;;;5120837;27;20049;-83
2023/10/07 04:09:11;;;;;;;9.65;4.38;;;17.00;99.90;;;;;;5108118;27;20066;-84
2023/10/07 04:11:37;;;;;;;17.33;4.78;;;17.00;99.90;;;;;;5108916;27;20078;-83
2023/10/07 04:14:39;;;;;;;13.88;4.22;;;17.00;99.90;;;;;;5125278;27;20050;-83
2023/10/07 04:17:00;;;;;;;12.60;4.80;;;17.00;99.90;;;;;;5099322;27;20047;-84
2023/10/07 04:21:51;;;;;;;10.15;3.83;;;17.10;99.90;;;;;;5118517;27;20062;-83
2023/10/07 04:24:23;;;;;;;10.88;4.13;;;17.10;99.90;;;;;;5120566;27;20592;-83
2023/10/07 04:27:02;;;;;;;12.60;4.13;;;17.20;99.90;;;;;;5088880;27;20422;-84
2023/10/07 04:29:28;;;;;;;10.52;4.20;;;17.10;99.90;;;;;;5085730;27;20394;-83
2023/10/07 04:31:54;;;;;;;12.85;4.18;;;17.10;99.90;;;;;;5098960;28;20143;-83
2023/10/07 04:34:24;;;;;;;10.75;4.60;;;17.10;99.90;;;;;;5090576;28;20402;-83
2023/10/07 04:42:22;;;;;;;15.90;4.90;;;17.10;99.90;;;;;;5107018;27;20145;-84
2023/10/07 04:50:16;;;;;;;11.60;4.57;;;17.10;99.90;;;;;;5088362;28;20549;-83
2023/10/07 04:52:50;;;;;;;12.88;4.13;;;17.10;99.90;;;;;;5087817;28;20082;-83
2023/10/07 04:55:19;;;;;;;14.80;4.78;;;17.10;99.90;;;;;;5071644;27;20045;-83
2023/10/07 05:02:59;;;;;;;12.00;4.95;;;17.30;99.90;;;;;;5094879;28;20483;-83
2023/10/07 05:05:34;;;;;;;13.68;4.65;;;17.10;99.90;;;;;;5072665;28;20039;-83
2023/10/07 05:08:11;;;;;;;10.15;3.90;;;17.10;99.90;;;;;;5086794;28;20075;-84
2023/10/07 05:10:43;;;;;;;11.18;4.68;;;17.60;99.90;;;;;;5088250;28;20052;-83
2023/10/07 05:13:10;;;;;;;16.67;4.82;;;17.10;99.90;;;;;;5071933;28;20050;-83
2023/10/07 05:15:38;;;;;;;15.27;4.28;;;17.10;99.90;;;;;;5107727;28;20036;-84
2023/10/07 05:18:05;;;;;;;14.85;4.68;;;17.00;99.90;;;;;;5115698;28;20074;-83
2023/10/07 05:20:37;;;;;;;8.75;4.70;;;17.00;99.90;;;;;;5089859;28;20039;-83
2023/10/07 05:23:04;;;;;;;10.23;4.35;;;17.00;99.90;;;;;;5110121;28;20614;-84
2023/10/07 05:25:38;;;;;;;16.35;4.63;;;17.00;99.90;;;;;;5089884;28;20089;-83
2023/10/07 05:28:11;;;;;;;11.63;4.88;;;17.10;99.90;;;;;;5088600;28;20040;-84
2023/10/07 05:30:43;;;;;;;10.40;4.35;;;17.40;99.90;;;;;;5117117;28;20039;-82
2023/10/07 05:33:09;;;;;;;12.27;4.78;;;17.30;99.90;;;;;;5102836;28;20054;-85
2023/10/07 05:35:38;;;;;;;12.48;4.70;;;17.60;99.90;;;;;;5097023;28;20063;-84
2023/10/07 05:38:09;;;;;;;12.73;4.20;;;17.10;99.90;;;;;;5079704;28;20044;-85
2023/10/07 05:40:40;;;;;;;9.57;3.93;;;17.10;99.90;;;;;;5090058;28;21895;-85
2023/10/07 05:43:08;;;;;;;13.02;4.93;;;17.10;99.90;;;;;;5094525;28;21015;-86
2023/10/07 05:45:34;;;;;;;10.00;4.30;;;17.10;99.90;;;;;;5103674;28;20494;-83
2023/10/07 05:48:01;;;;;;;13.45;4.28;;;17.10;99.90;;;;;;5094968;28;20047;-84
2023/10/07 05:50:32;;;;;;;12.82;4.15;;;17.20;99.90;;;;;;5106597;28;20092;-84
2023/10/07 05:52:59;;;;;;;10.75;4.55;;;17.20;99.90;;;;;;5092918;28;20504;-84
2023/10/07 05:55:25;;;;;;;10.10;4.45;;;17.40;99.90;;;;;;5072290;28;20046;-84
2023/10/07 05:57:52;;;;;;;10.70;4.22;;;17.20;99.90;;;;;;5088281;28;20047;-85
2023/10/07 06:00:18;;;;;;;11.32;4.07;;;17.60;99.90;;;;;;5089163;28;20035;-82
2023/10/07 06:02:44;;;;;;;10.77;4.57;;;17.10;99.90;;;;;;5109515;28;20099;-82
2023/10/07 06:05:12;;;;;;;13.30;4.38;;;17.10;99.90;;;;;;5095115;27;20153;-83
2023/10/07 06:07:41;;;;;;;11.88;4.60;;;17.30;99.90;;;;;;5118290;27;20051;-83
2023/10/07 06:10:10;;;;;;;9.70;3.90;;;17.20;99.90;;;;;;5128415;27;20050;-83
2023/10/07 06:12:36;;;;;;;9.73;4.25;;;17.10;99.90;;;;;;5115580;27;20515;-82
2023/10/07 06:15:08;;;;;;;11.07;5.20;;;17.10;99.90;;;;;;5127689;27;20067;-83
2023/10/07 06:17:34;;;;;;;13.05;4.20;;;17.10;99.90;;;;;;5080969;28;20043;-82
2023/10/07 06:20:13;;;;;;;8.82;4.07;;;17.20;99.90;;;;;;5111126;28;20047;-82
2023/10/07 06:22:45;;;;;;;12.60;4.43;;;17.10;99.90;;;;;;5123897;27;20084;-81
2023/10/07 06:25:12;;;;;;;12.63;4.72;;;17.10;99.90;;;;;;5131234;27;20054;-81
2023/10/07 06:27:42;;;;;;;12.32;4.22;;;17.10;99.90;;;;;;5096167;27;20047;-82
2023/10/07 06:30:09;;;;;;;12.15;3.70;;;17.10;99.90;;;;;;5131692;27;20509;-81
2023/10/07 06:32:45;;;;;;;10.65;4.15;;;17.10;99.90;;;;;;5131563;27;20544;-82
2023/10/07 06:35:14;;;;;;;10.43;4.20;;;17.10;99.90;;;;;;5131919;27;20047;-82
2023/10/07 06:37:41;;;;;;;11.77;4.50;;;17.10;99.90;;;;;;5127622;27;20047;-81
2023/10/07 06:42:55;;;;;;;10.73;4.70;;;17.10;99.90;;;;;;5111106;28;20195;-82
2023/10/07 06:45:29;;;;;;;12.52;4.68;;;17.50;99.90;;;;;;5110648;28;20067;-81
2023/10/07 06:47:59;;;;;;;10.95;3.95;;;17.20;99.90;;;;;;5118064;27;20656;-81
2023/10/07 06:50:27;;;;;;;9.98;4.47;;;17.10;99.90;;;;;;5074687;28;20075;-82
2023/10/07 06:52:55;;;;;;;13.52;4.72;;;17.00;99.90;;;;;;5110313;28;20116;-82
2023/10/07 06:55:23;;;;;;;14.18;4.80;;;17.00;99.90;;;;;;5117048;27;20050;-83
2023/10/07 06:57:56;;;;;;;13.77;4.45;;;17.10;99.90;;;;;;5110766;27;20117;-82
2023/10/07 07:00:27;;;;;;;;;;;17.10;99.90;;;;;;5111421;28;20127;-83
2023/10/07 07:02:59;;;;;;;12.52;4.50;;;16.80;99.90;;;;;;5099892;27;20017;-82
2023/10/07 07:05:26;;;;;;;13.30;5.15;;;17.00;99.90;;;;;;5092828;27;20088;-82
2023/10/07 07:07:52;;;;;;;12.63;4.70;;;16.80;99.90;;;;;;5115103;27;20104;-82
2023/10/07 07:10:27;;;;;;;11.02;4.75;;;16.80;99.90;;;;;;5111522;27;20164;-82
2023/10/07 07:12:59;;;;;;;9.43;4.88;;;17.30;99.90;;;;;;5128681;27;20510;-83
2023/10/07 07:15:29;;;;;;;10.88;4.80;;;17.40;99.90;;;;;;5129458;27;20094;-82
2023/10/07 07:18:14;;;;;;;13.57;4.30;;;17.10;99.90;;;;;;5111973;27;20070;-84
2023/10/07 07:23:36;;;;;;;12.07;4.82;;;17.10;99.90;;;;;;5075758;28;20055;-84
2023/10/07 07:28:30;;;;;;;12.10;5.00;;;17.80;99.90;;;;;;5091742;28;20057;-86
2023/10/07 07:30:59;;;;;;;10.85;4.88;;;17.30;99.90;;;;;;5109822;27;20075;-85
2023/10/07 07:33:29;;;;;;;13.70;4.68;;;17.30;99.90;;;;;;5107031;27;20039;-86
2023/10/07 07:35:58;;;;;;;13.57;4.85;;;17.40;99.90;;;;;;5112051;27;20043;-85
2023/10/07 07:38:30;;;;;;;12.35;5.82;;;17.40;99.90;;;;;;5130074;27;20495;-85
2023/10/07 07:41:06;;;;;;;11.60;4.28;;;18.00;99.90;;;;;;5111463;27;20067;-86
2023/10/07 07:43:36;;;;;;;11.93;4.85;;;17.40;99.90;;;;;;5110011;28;20110;-85
2023/10/07 07:48:43;;;;;;;11.70;4.40;;;17.70;99.90;;;;;;5078981;28;20075;-85
2023/10/07 07:51:11;;;;;;;11.05;5.00;;;17.60;99.90;;;;;;5091387;28;20079;-88
2023/10/07 07:53:40;;;;;;;13.02;4.60;;;18.00;99.90;;;;;;5094431;27;20051;-88
2023/10/07 07:56:08;;;;;;;11.20;4.60;;;17.70;99.90;;;;;;5092212;28;20440;-86
2023/10/07 07:58:37;;;;;;;12.88;4.90;;;17.70;99.90;;;;;;5109697;28;20363;-87
2023/10/07 08:01:05;;;;;;;9.63;4.28;;;17.80;99.90;;;;;;5098617;27;20426;-88
2023/10/07 08:03:35;;;;;;;11.52;4.47;;;17.80;99.90;;;;;;5110940;27;20520;-88
2023/10/07 08:06:06;;;;;;;12.63;4.47;;;18.00;99.90;;;;;;5102845;27;20043;-91
2023/10/07 08:08:36;;;;;;;11.88;4.00;;;18.00;99.90;;;;;;5112884;27;20126;-87
2023/10/07 08:11:02;;;;;;;13.02;4.63;;;17.90;99.90;;;;;;5111244;27;20402;-88
2023/10/07 08:13:28;;;;;;;13.65;4.15;;;18.10;99.90;;;;;;5093260;28;20145;-88
2023/10/07 08:15:57;;;;;;;17.13;5.22;;;18.20;99.90;;;;;;5110641;28;20075;-90
2023/10/07 08:18:28;;;;;;;12.90;3.80;;;18.00;99.90;;;;;;5078233;28;20063;-87
2023/10/07 08:21:07;;;;;;;10.93;4.43;;;18.10;99.90;;;;;;5091295;28;20044;-88
2023/10/07 08:23:36;;;;;;;13.18;3.70;;;18.30;99.90;;;;;;5074664;28;20081;-87
2023/10/07 08:26:12;;;;;;;14.55;4.00;;;18.40;99.90;;;;;;5077399;27;20516;-87
2023/10/07 08:28:43;;;;;;;11.45;4.03;;;18.30;99.90;;;;;;5129467;27;20053;-90
2023/10/07 08:31:19;;;;;;;13.63;3.88;;;18.30;99.90;;;;;;5111580;27;20051;-88
2023/10/07 08:33:53;;;;;;;8.88;4.00;;;18.70;99.90;;;;;;5091187;28;20950;-87
2023/10/07 08:36:29;;;;;;;10.98;4.10;;;18.20;99.90;;;;;;5097153;27;20425;-84
2023/10/07 08:39:05;;;;;;;12.70;4.72;;;18.60;99.90;;;;;;5092402;27;20108;-87
2023/10/07 08:41:31;;;;;;;13.50;3.90;;;18.10;99.90;;;;;;5092795;27;20100;-84
2023/10/07 08:44:13;;;;;;;11.15;3.80;;;18.20;99.90;;;;;;5111317;27;20058;-85
2023/10/07 08:46:49;;;;;;;11.57;3.60;;;18.10;99.90;;;;;;5110477;27;20660;-85
2023/10/07 08:49:24;;;;;;;11.85;3.72;;;18.10;99.90;;;;;;5110769;27;20104;-86
2023/10/07 08:51:52;;;;;;;9.65;3.63;;;18.20;99.90;;;;;;5094469;27;20051;-85
2023/10/07 08:54:18;;;;;;;18.50;4.03;;;18.10;99.90;;;;;;5111220;27;20071;-86
2023/10/07 08:56:54;;;;;;;7.97;3.40;;;18.30;99.90;;;;;;5091416;28;20558;-87
2023/10/07 08:59:22;;;;;;;9.65;3.55;;;18.20;99.90;;;;;;5073849;28;20073;-86
2023/10/07 09:01:57;;;;;;;11.75;3.70;;;18.20;99.90;;;;;;5108646;28;20044;-85
2023/10/07 09:04:31;;;;;;;15.30;4.35;;;18.70;99.90;;;;;;5089984;28;20051;-85
2023/10/07 09:06:58;;;;;;;13.18;4.00;;;18.50;99.90;;;;;;5089568;28;20090;-87
2023/10/07 09:09:34;;;;;;;10.93;4.40;;;18.30;99.90;;;;;;5072723;28;20403;-86
2023/10/07 09:12:08;;;;;;;11.70;4.45;;;18.40;99.90;;;;;;5078892;27;20046;-86
2023/10/07 09:14:34;;;;;;;10.77;3.78;;;18.40;99.90;;;;;;5082604;28;20063;-86
2023/10/07 09:17:04;;;;;;;10.70;3.80;;;18.50;99.90;;;;;;5090539;28;20043;-85
2023/10/07 09:19:30;;;;;;;12.25;3.90;;;18.50;99.90;;;;;;5090248;28;20064;-84
2023/10/07 09:21:57;;;;;;;10.93;3.55;;;18.60;99.90;;;;;;5108276;28;20063;-86
2023/10/07 09:24:26;;;;;;;9.63;4.07;;;18.70;99.90;;;;;;5089785;28;20048;-86
2023/10/07 09:26:56;;;;;;;7.47;3.70;;;18.70;99.90;;;;;;5074022;28;20044;-87
2023/10/07 09:29:27;;;;;;;12.88;3.92;;;18.70;99.90;;;;;;5074113;28;20052;-88
2023/10/07 09:31:56;;;;;;;14.07;3.97;;;18.80;99.90;;;;;;5081653;28;20126;-89
2023/10/07 09:34:41;;;;;;;8.77;3.95;;;18.90;99.90;;;;;;5095175;28;20410;-86
2023/10/07 09:37:17;;;;;;;9.68;4.38;;;19.00;99.90;;;;;;5112808;28;20073;-87
2023/10/07 09:40:18;;;;;;;15.18;4.07;;;19.00;99.90;;;;;;5095175;27;20131;-89
2023/10/07 09:42:56;;;;;;;9.13;3.42;;;19.00;99.90;;;;;;5115370;27;20509;-88
2023/10/07 09:45:28;;;;;;;11.88;4.05;;;19.10;99.90;;;;;;5134357;27;20047;-90
2023/10/07 09:48:00;;;;;;;10.97;4.23;;;18.70;99.90;;;;;;5085306;27;20539;-88
2023/10/07 09:50:33;;;;;;;9.93;4.22;;;19.20;99.90;;;;;;5082474;28;20043;-90
2023/10/07 09:53:22;;;;;;;9.00;3.90;;;19.10;99.90;;;;;;5077641;28;20059;-86
2023/10/07 09:56:21;;;;;;;11.50;3.85;;;19.20;99.90;;;;;;5094324;28;20047;-87
2023/10/07 09:58:52;;;;;;;8.57;3.65;;;19.10;99.90;;;;;;5095151;27;20467;-88
2023/10/07 10:02:43;;;;;;;10.35;3.80;;;19.20;99.90;;;;;;5076598;28;20524;-88
2023/10/07 10:05:40;;;;;;;7.38;3.55;;;19.20;99.90;;;;;;5076514;27;20048;-89
2023/10/07 10:08:43;;;;;;;8.90;3.78;;;19.20;99.90;;;;;;5077487;28;20138;-87
2023/10/07 10:11:30;;;;;;;9.77;4.15;;;19.20;99.90;;;;;;5082159;28;20094;-87
2023/10/07 10:14:10;;;;;;;7.28;3.55;;;19.10;99.90;;;;;;5077402;28;20059;-88
2023/10/07 10:16:44;;;;;;;11.82;4.72;;;19.10;99.90;;;;;;5076213;27;20039;-87
2023/10/07 10:19:17;;;;;;;14.35;4.43;;;19.10;99.90;;;;;;5093838;28;20110;-87
2023/10/07 10:21:46;;;;;;;8.85;3.90;;;19.10;99.90;;;;;;5082167;27;20047;-89
2023/10/07 10:24:14;;;;;;;13.27;4.28;;;19.10;99.90;;;;;;5079211;27;20039;-87
2023/10/07 10:26:40;;;;;;;15.50;4.93;;;19.10;99.90;;;;;;5095557;27;20489;-87
2023/10/07 10:29:15;;;;;;;16.73;4.00;;;19.10;99.90;;;;;;5078335;28;20078;-88
2023/10/07 10:31:52;;;;;;;13.07;3.88;;;19.10;99.90;;;;;;5093929;28;20510;-88
2023/10/07 10:34:20;;;;;;;10.63;4.03;;;19.10;99.90;;;;;;5076599;28;20044;-87
2023/10/07 10:36:49;;;;;;;9.93;4.13;;;19.50;99.90;;;;;;5077087;28;20044;-88
2023/10/07 10:39:22;;;;;;;14.02;4.32;;;19.20;99.90;;;;;;5111236;28;20526;-87
2023/10/07 10:41:48;;;;;;;10.23;4.38;;;19.20;99.90;;;;;;5100405;28;20058;-84
2023/10/07 10:44:16;;;;;;;10.45;4.05;;;19.30;99.90;;;;;;5093980;28;20151;-87
2023/10/07 10:46:49;;;;;;;10.68;4.40;;;19.40;99.90;;;;;;5094220;28;20078;-87
2023/10/07 10:49:20;;;;;;;10.35;3.92;;;19.40;99.90;;;;;;5076702;28;20130;-85
2023/10/07 10:51:48;;;;;;;11.35;4.13;;;19.50;99.90;;;;;;5075232;28;20070;-82
2023/10/07 10:54:23;;;;;;;14.07;5.32;;;19.90;99.90;;;;;;5111123;28;20047;-87
2023/10/07 10:56:57;;;;;;;13.63;4.72;;;19.50;99.90;;;;;;5074645;28;20040;-86
2023/10/07 10:59:43;;;;;;;12.27;5.13;;;19.70;99.90;;;;;;5092422;27;20119;-86
2023/10/07 11:02:22;;;;;;;15.35;6.22;;;19.80;99.90;;;;;;5097328;27;20070;-84
2023/10/07 11:04:51;;;;;;;25.70;10.70;;;19.70;99.90;;;;;;5109292;28;20056;-86
2023/10/07 11:07:18;;;;;;;11.85;5.10;;;19.80;99.90;;;;;;5092313;28;20058;-87
2023/10/07 11:09:48;;;;;;;26.95;11.93;;;19.80;99.90;;;;;;5076122;28;20092;-86
2023/10/07 11:12:17;;;;;;;13.90;5.07;;;19.90;99.90;;;;;;5109515;28;20058;-85
2023/10/07 11:14:47;;;;;;;18.75;7.88;;;19.90;99.90;;;;;;5091791;28;20126;-86
2023/10/07 11:17:15;;;;;;;15.52;6.95;;;20.20;99.90;;;;;;5096679;27;20043;-86
2023/10/07 11:19:42;;;;;;;13.32;5.70;;;19.80;99.90;;;;;;5093337;28;20529;-87
2023/10/07 11:22:18;;;;;;;12.60;4.28;;;19.70;99.90;;;;;;5092401;28;20048;-87
2023/10/07 11:24:46;;;;;;;12.07;5.25;;;20.00;99.90;;;;;;5091354;28;20047;-87
2023/10/07 11:27:12;;;;;;;11.88;4.78;;;19.80;99.90;;;;;;5095731;27;20050;-86
2023/10/07 11:29:40;;;;;;;16.98;8.20;;;19.70;99.90;;;;;;5112337;27;20588;-83
2023/10/07 11:32:07;;;;;;;14.70;6.65;;;20.00;99.90;;;;;;5095309;27;20051;-85
2023/10/07 11:34:40;;;;;;;11.00;4.97;;;19.80;99.90;;;;;;5097588;27;20524;-85
2023/10/07 11:37:09;;;;;;;9.80;4.45;;;19.90;99.90;;;;;;5105216;27;20047;-90
2023/10/07 11:39:44;;;;;;;14.05;5.13;;;19.80;99.90;;;;;;5112089;27;20130;-84
2023/10/07 11:42:19;;;;;;;12.63;4.70;;;20.40;99.90;;;;;;5096347;27;20043;-87
2023/10/07 11:44:50;;;;;;;13.32;4.38;;;20.20;99.90;;;;;;5112633;27;20079;-84
2023/10/07 11:47:16;;;;;;;12.18;4.50;;;19.80;99.90;;;;;;5109791;28;20050;-86
2023/10/07 11:49:48;;;;;;;10.27;4.25;;;19.70;99.90;;;;;;5110045;27;20047;-85
2023/10/07 11:52:19;;;;;;;11.60;4.65;;;20.10;99.90;;;;;;5087355;27;20047;-84
2023/10/07 11:54:49;;;;;;;9.30;4.25;;;19.70;99.90;;;;;;5097980;27;20039;-84
2023/10/07 11:57:17;;;;;;;13.13;4.10;;;20.20;99.90;;;;;;5110518;27;20047;-85
2023/10/07 11:59:44;;;;;;;13.75;4.65;;;19.90;99.90;;;;;;5077274;27;20071;-86
2023/10/07 12:02:12;;;;;;;9.57;4.40;;;19.70;99.90;;;;;;5091034;28;20073;-87
2023/10/07 12:04:41;;;;;;;9.85;3.97;;;20.30;99.90;;;;;;5086416;27;20047;-86
2023/10/07 12:07:08;;;;;;;11.10;4.30;;;19.60;99.90;;;;;;5079701;27;20044;-86
2023/10/07 12:09:37;;;;;;;12.63;4.63;;;19.90;99.90;;;;;;5075488;28;20085;-84
2023/10/07 12:12:03;;;;;;;12.00;4.68;;;20.10;99.90;;;;;;5074644;28;20083;-86
2023/10/07 12:14:31;;;;;;;10.32;3.97;;;19.90;99.90;;;;;;5091666;28;20043;-85
2023/10/07 12:16:58;;;;;;;11.90;4.10;;;19.90;99.90;;;;;;5074625;28;20051;-88
2023/10/07 12:19:25;;;;;;;11.93;3.70;;;20.10;99.90;;;;;;5075113;28;20069;-85
2023/10/07 12:21:52;;;;;;;11.18;4.25;;;20.00;99.90;;;;;;5091674;27;20059;-85
2023/10/07 12:24:18;;;;;;;12.00;4.15;;;19.90;99.90;;;;;;5091535;28;20150;-86
2023/10/07 12:26:50;;;;;;;12.13;4.63;;;20.10;99.90;;;;;;5091852;28;20047;-87
2023/10/07 12:29:19;;;;;;;12.68;4.15;;;20.10;99.90;;;;;;5075067;28;20052;-87
2023/10/07 12:31:45;;;;;;;12.00;4.57;;;20.10;99.90;;;;;;5074677;28;20047;-86
2023/10/07 12:34:16;;;;;;;9.82;4.30;;;20.10;99.90;;;;;;5092231;27;20112;-86
2023/10/07 12:36:42;;;;;;;8.35;4.45;;;20.70;99.90;;;;;;5103618;27;20043;-85
2023/10/07 12:39:11;;;;;;;13.07;5.30;;;20.30;99.90;;;;;;5102498;27;20082;-85
2023/10/07 12:41:38;;;;;;;10.80;4.38;;;20.30;99.90;;;;;;5096808;28;20055;-84
2023/10/07 12:44:08;;;;;;;12.85;4.63;;;20.20;99.90;;;;;;5091427;28;20101;-85
2023/10/07 12:46:35;;;;;;;11.18;4.10;;;20.10;99.90;;;;;;5090647;28;20048;-88
2023/10/07 12:49:01;;;;;;;13.02;4.20;;;20.10;99.90;;;;;;5091766;27;21817;-87
2023/10/07 12:51:27;;;;;;;11.13;4.82;;;20.00;99.90;;;;;;5111055;27;20064;-87
2023/10/07 12:53:56;;;;;;;8.55;4.22;;;19.90;99.90;;;;;;5107195;28;20100;-88
2023/10/07 12:56:22;;;;;;;10.32;4.32;;;19.80;99.90;;;;;;5105649;27;20051;-86
2023/10/07 12:58:48;;;;;;;11.13;4.53;;;20.00;99.90;;;;;;5110857;27;20047;-87
2023/10/07 13:01:15;;;;;;;10.15;4.13;;;20.40;99.90;;;;;;5110876;27;20049;-85
2023/10/07 13:03:44;;;;;;;13.27;4.57;;;20.00;99.90;;;;;;5128515;27;20039;-88
2023/10/07 13:06:10;;;;;;;11.63;4.90;;;20.20;99.90;;;;;;5095201;28;20047;-87
2023/10/07 13:08:41;;;;;;;12.23;4.30;;;20.50;99.90;;;;;;5091729;28;20561;-87
2023/10/07 13:11:20;;;;;;;11.68;3.97;;;20.30;99.90;;;;;;5105121;28;20043;-87
2023/10/07 13:13:46;;;;;;;11.98;4.38;;;20.30;99.90;;;;;;5090005;28;20124;-88
2023/10/07 13:16:13;;;;;;;10.88;4.90;;;20.30;99.90;;;;;;5090695;28;20036;-87
2023/10/07 13:18:44;;;;;;;13.00;4.22;;;20.40;99.90;;;;;;5092882;28;20048;-86
2023/10/07 13:21:19;;;;;;;10.40;4.18;;;20.10;99.90;;;;;;5108505;28;20043;-89
2023/10/07 13:23:48;;;;;;;8.90;4.63;;;20.40;99.90;;;;;;5103236;28;20546;-87
2023/10/07 13:26:14;;;;;;;9.85;4.60;;;20.00;99.90;;;;;;5092178;28;20043;-89
2023/10/07 13:28:41;;;;;;;11.38;4.25;;;19.90;99.90;;;;;;5101609;28;20402;-89
2023/10/07 13:31:10;;;;;;;10.38;4.03;;;20.20;99.90;;;;;;5098299;28;20039;-89
2023/10/07 13:33:36;;;;;;;11.57;4.43;;;19.90;99.90;;;;;;5081483;28;20035;-86
2023/10/07 13:36:08;;;;;;;13.07;4.60;;;20.50;99.90;;;;;;5090272;28;20054;-87
2023/10/07 13:38:35;;;;;;;10.38;4.38;;;19.80;99.90;;;;;;5104067;28;20046;-87
2023/10/07 13:41:03;;;;;;;9.98;4.30;;;19.40;99.90;;;;;;5078999;28;20154;-89